createdAt,value
2023-03-16T00:01:07.526Z,7.15
2023-03-16T00:03:34.491Z,7.15
2023-03-16T00:06:01.242Z,7.14
2023-03-16T00:08:27.609Z,7.13
2023-03-16T00:10:56.670Z,7.15
2023-03-16T00:13:24.590Z,7.19
2023-03-16T00:15:56.411Z,7.18
2023-03-16T00:18:27.137Z,7.18
2023-03-16T00:20:55.514Z,7.18
2023-03-16T00:23:28.692Z,7.18
2023-03-16T00:25:56.258Z,7.20
2023-03-16T00:28:23.630Z,7.19
2023-03-16T00:30:50.176Z,7.15
2023-03-16T00:33:16.994Z,7.13
2023-03-16T00:35:49.857Z,7.07
2023-03-16T00:38:18.138Z,7.06
2023-03-16T00:40:44.606Z,7.01
2023-03-16T00:43:11.036Z,7.01
2023-03-16T00:45:37.500Z,7.02
2023-03-16T00:48:03.937Z,7.02
2023-03-16T00:50:30.330Z,7.03
2023-03-16T00:52:56.751Z,7.01
2023-03-16T00:55:23.190Z,7.00
2023-03-16T00:57:52.104Z,6.92
2023-03-16T01:00:20.806Z,6.91
2023-03-16T01:02:47.478Z,6.89
2023-03-16T01:05:14.322Z,6.90
2023-03-16T01:07:41.660Z,6.89
2023-03-16T01:10:09.337Z,6.90
2023-03-16T01:12:35.984Z,6.91
2023-03-16T01:15:02.627Z,6.92
2023-03-16T01:17:29.107Z,6.91
2023-03-16T01:19:55.543Z,6.93
2023-03-16T01:22:21.999Z,6.91
2023-03-16T01:24:48.366Z,6.91
2023-03-16T01:27:14.775Z,6.94
2023-03-16T01:29:43.512Z,6.87
2023-03-16T01:32:10.210Z,6.84
2023-03-16T01:34:36.580Z,6.82
2023-03-16T01:37:03.711Z,6.81
2023-03-16T01:39:30.343Z,6.82
2023-03-16T01:41:56.787Z,6.81
2023-03-16T01:44:30.412Z,6.83
2023-03-16T01:46:57.244Z,6.86
2023-03-16T01:49:29.228Z,6.89
2023-03-16T01:52:27.623Z,6.89
2023-03-16T01:54:53.935Z,6.88
2023-03-16T01:57:29.156Z,6.81
2023-03-16T02:00:10.545Z,6.83
2023-03-16T02:02:43.525Z,6.82
2023-03-16T02:05:17.117Z,6.77
2023-03-16T02:07:49.252Z,6.78
2023-03-16T02:10:18.657Z,6.81
2023-03-16T02:12:45.794Z,6.83
2023-03-16T02:15:14.172Z,6.84
2023-03-16T02:17:43.680Z,6.85
2023-03-16T02:20:28.406Z,6.84
2023-03-16T02:22:59.681Z,6.86
2023-03-16T02:25:55.310Z,6.87
2023-03-16T02:29:03.093Z,6.84
2023-03-16T02:31:29.555Z,6.84
2023-03-16T02:33:59.334Z,6.87
2023-03-16T02:36:25.810Z,6.89
2023-03-16T02:38:52.185Z,6.87
2023-03-16T02:41:21.201Z,6.84
2023-03-16T02:44:17.938Z,6.87
2023-03-16T02:46:46.748Z,6.88
2023-03-16T02:49:29.780Z,6.89
2023-03-16T02:51:57.500Z,6.88
2023-03-16T02:54:24.412Z,6.88
2023-03-16T02:56:51.382Z,6.90
2023-03-16T02:59:18.184Z,6.91
2023-03-16T03:01:44.622Z,6.92
2023-03-16T03:04:11.137Z,6.91
2023-03-16T03:06:37.571Z,6.89
2023-03-16T03:09:05.036Z,6.87
2023-03-16T03:11:31.885Z,6.84
2023-03-16T03:13:58.413Z,6.82
2023-03-16T03:16:25.025Z,6.80
2023-03-16T03:18:54.884Z,6.82
2023-03-16T03:21:21.585Z,6.80
2023-03-16T03:23:55.033Z,6.75
2023-03-16T03:26:21.664Z,6.74
2023-03-16T03:28:48.082Z,6.73
2023-03-16T03:31:16.119Z,6.72
2023-03-16T03:33:42.619Z,6.70
2023-03-16T03:36:09.153Z,6.69
2023-03-16T03:38:36.014Z,6.66
2023-03-16T03:41:02.519Z,6.64
2023-03-16T03:43:28.946Z,6.68
2023-03-16T03:46:00.817Z,6.67
2023-03-16T03:48:27.940Z,6.62
2023-03-16T03:50:54.400Z,6.60
2023-03-16T03:53:20.986Z,6.58
2023-03-16T03:55:49.810Z,6.55
2023-03-16T03:58:16.517Z,6.56
2023-03-16T04:00:43.094Z,6.53
2023-03-16T04:03:09.611Z,6.51
2023-03-16T04:05:36.100Z,6.51
2023-03-16T04:08:20.657Z,6.48
2023-03-16T04:10:47.254Z,6.47
2023-03-16T04:13:13.674Z,6.45
2023-03-16T04:15:40.542Z,6.47
2023-03-16T04:18:07.005Z,6.46
2023-03-16T04:20:33.522Z,6.44
2023-03-16T04:22:59.925Z,6.47
2023-03-16T04:25:27.582Z,6.44
2023-03-16T04:27:54.100Z,6.42
2023-03-16T04:30:23.341Z,6.41
2023-03-16T04:32:49.894Z,6.41
2023-03-16T04:35:17.201Z,6.40
2023-03-16T04:37:44.058Z,6.38
2023-03-16T04:40:16.909Z,6.35
2023-03-16T04:42:45.077Z,6.33
2023-03-16T04:45:12.395Z,6.36
2023-03-16T04:47:39.349Z,6.36
2023-03-16T04:50:07.297Z,6.38
2023-03-16T04:52:33.773Z,6.39
2023-03-16T04:55:00.184Z,6.38
2023-03-16T04:57:26.587Z,6.39
2023-03-16T04:59:53.008Z,6.36
2023-03-16T05:02:21.029Z,6.38
2023-03-16T05:04:48.310Z,6.35
2023-03-16T05:07:14.723Z,6.33
2023-03-16T05:09:41.670Z,6.32
2023-03-16T05:12:08.572Z,6.36
2023-03-16T05:14:36.068Z,6.36
2023-03-16T05:17:03.849Z,6.35
2023-03-16T05:19:30.457Z,6.37
2023-03-16T05:21:56.941Z,6.39
2023-03-16T05:24:23.720Z,6.42
2023-03-16T05:26:50.132Z,6.40
2023-03-16T05:29:16.644Z,6.40
2023-03-16T05:31:43.006Z,6.41
2023-03-16T05:34:09.378Z,6.36
2023-03-16T05:36:36.124Z,6.33
2023-03-16T05:39:02.736Z,6.33
2023-03-16T05:41:31.986Z,6.30
2023-03-16T05:43:58.375Z,6.30
2023-03-16T05:46:24.867Z,6.32
2023-03-16T05:48:51.246Z,6.28
2023-03-16T05:51:18.099Z,6.23
2023-03-16T05:53:46.789Z,6.21
2023-03-16T05:56:13.191Z,6.15
2023-03-16T05:58:39.641Z,6.15
2023-03-16T06:01:07.346Z,6.15
2023-03-16T06:03:33.808Z,6.17
2023-03-16T06:06:00.293Z,6.16
2023-03-16T06:08:26.694Z,6.20
2023-03-16T06:10:53.300Z,6.17
2023-03-16T06:13:19.740Z,6.15
2023-03-16T06:15:46.162Z,6.13
2023-03-16T06:18:12.594Z,6.17
2023-03-16T06:20:39.041Z,6.21
2023-03-16T06:23:05.411Z,6.20
2023-03-16T06:25:31.834Z,6.20
2023-03-16T06:27:58.352Z,6.27
2023-03-16T06:30:24.993Z,6.30
2023-03-16T06:32:52.096Z,6.39
2023-03-16T06:35:18.828Z,6.48
2023-03-16T06:37:45.268Z,6.50
2023-03-16T06:40:12.375Z,6.44
2023-03-16T06:42:38.948Z,6.42
2023-03-16T06:45:05.871Z,6.41
2023-03-16T06:47:32.446Z,6.37
2023-03-16T06:49:59.121Z,6.32
2023-03-16T06:52:25.611Z,6.31
2023-03-16T06:54:52.045Z,6.33
2023-03-16T06:57:18.540Z,6.32
2023-03-16T06:59:45.005Z,6.31
2023-03-16T07:02:13.802Z,6.39
2023-03-16T07:04:41.848Z,6.44
2023-03-16T07:07:09.082Z,6.50
2023-03-16T07:09:38.732Z,6.49
2023-03-16T07:12:06.303Z,6.47
2023-03-16T07:14:32.675Z,6.49
2023-03-16T07:16:59.221Z,6.48
2023-03-16T07:19:25.744Z,6.50
2023-03-16T07:21:52.335Z,6.49
2023-03-16T07:24:19.040Z,6.49
2023-03-16T07:26:46.409Z,6.52
2023-03-16T07:29:13.912Z,6.51
2023-03-16T07:31:40.380Z,6.51
2023-03-16T07:34:06.914Z,6.40
2023-03-16T07:36:33.307Z,6.56
2023-03-16T07:38:59.710Z,6.57
2023-03-16T07:41:26.111Z,6.59
2023-03-16T07:43:53.338Z,6.58
2023-03-16T07:46:19.786Z,6.59
2023-03-16T07:48:46.534Z,6.57
2023-03-16T07:51:14.137Z,6.54
2023-03-16T07:53:41.441Z,6.58
2023-03-16T07:56:08.716Z,6.59
2023-03-16T07:58:35.204Z,6.57
2023-03-16T08:01:01.733Z,6.62
2023-03-16T08:03:29.948Z,6.65
2023-03-16T08:05:56.501Z,6.77
2023-03-16T08:08:23.440Z,6.85
2023-03-16T08:10:56.244Z,6.92
2023-03-16T08:13:23.383Z,6.92
2023-03-16T08:16:01.306Z,6.98
2023-03-16T08:18:29.997Z,7.06
2023-03-16T08:20:57.523Z,7.10
2023-03-16T08:23:25.796Z,7.09
2023-03-16T08:25:54.019Z,7.10
2023-03-16T08:28:21.708Z,7.10
2023-03-16T08:30:50.990Z,7.12
2023-03-16T08:33:18.224Z,7.14
2023-03-16T08:35:45.242Z,7.17
2023-03-16T08:38:12.749Z,7.18
2023-03-16T08:40:42.035Z,7.26
2023-03-16T08:43:08.866Z,7.35
2023-03-16T08:45:35.221Z,7.41
2023-03-16T08:48:01.744Z,7.41
2023-03-16T08:50:28.578Z,7.45
2023-03-16T08:52:55.139Z,7.46
2023-03-16T08:55:21.555Z,7.47
2023-03-16T08:57:48.774Z,7.47
2023-03-16T09:00:15.497Z,7.49
2023-03-16T09:02:42.815Z,7.56
2023-03-16T09:05:11.530Z,7.61
2023-03-16T09:07:44.095Z,7.67
2023-03-16T09:10:14.469Z,7.74
2023-03-16T09:12:40.953Z,7.81
2023-03-16T09:15:08.888Z,7.87
2023-03-16T09:17:36.223Z,7.88
2023-03-16T09:20:15.474Z,7.91
2023-03-16T09:22:48.229Z,7.97
2023-03-16T09:25:15.524Z,8.01
2023-03-16T09:27:44.929Z,8.05
2023-03-16T09:30:11.954Z,8.04
2023-03-16T09:32:38.510Z,8.05
2023-03-16T09:35:06.221Z,8.09
2023-03-16T09:37:44.583Z,8.11
2023-03-16T09:40:21.615Z,8.19
2023-03-16T09:43:01.295Z,8.25
2023-03-16T09:45:53.456Z,8.40
2023-03-16T09:48:21.420Z,8.55
2023-03-16T09:50:49.750Z,8.82
2023-03-16T09:53:27.291Z,9.19
2023-03-16T09:55:58.638Z,9.62
2023-03-16T09:58:25.239Z,10.18
2023-03-16T10:01:09.718Z,10.83
2023-03-16T10:04:09.624Z,11.40
2023-03-16T10:06:53.395Z,11.55
2023-03-16T10:09:28.582Z,11.37
2023-03-16T10:11:58.714Z,11.21
2023-03-16T10:14:37.935Z,11.13
2023-03-16T10:17:28.067Z,11.00
2023-03-16T10:19:59.326Z,11.13
2023-03-16T10:22:30.430Z,11.57
2023-03-16T10:25:03.271Z,12.14
2023-03-16T10:27:36.636Z,12.55
2023-03-16T10:30:11.087Z,12.80
2023-03-16T10:32:38.373Z,13.01
2023-03-16T10:35:34.503Z,13.05
2023-03-16T10:38:00.876Z,13.07
2023-03-16T10:40:32.913Z,13.13
2023-03-16T10:43:06.369Z,13.19
2023-03-16T10:45:35.580Z,13.08
2023-03-16T10:48:14.433Z,13.24
2023-03-16T10:50:43.074Z,13.27
2023-03-16T10:53:21.493Z,13.21
2023-03-16T10:55:48.346Z,13.11
2023-03-16T10:58:32.246Z,13.08
2023-03-16T11:00:58.746Z,12.94
2023-03-16T11:03:28.879Z,12.83
2023-03-16T11:06:00.695Z,12.72
2023-03-16T11:08:31.529Z,12.59
2023-03-16T11:11:01.082Z,12.45
2023-03-16T11:13:35.820Z,12.29
2023-03-16T11:16:25.695Z,12.15
2023-03-16T11:19:24.075Z,12.03
2023-03-16T11:21:57.546Z,11.97
2023-03-16T11:24:44.934Z,11.92
2023-03-16T11:27:37.360Z,11.94
2023-03-16T11:30:06.995Z,11.95
2023-03-16T11:32:37.158Z,11.92
2023-03-16T11:35:18.115Z,11.94
2023-03-16T11:38:03.123Z,11.98
2023-03-16T11:40:41.158Z,12.00
2023-03-16T11:43:36.989Z,12.01
2023-03-16T11:46:03.367Z,12.12
2023-03-16T11:48:43.899Z,12.25
2023-03-16T11:51:35.131Z,12.36
2023-03-16T11:54:24.109Z,12.44
2023-03-16T11:57:06.737Z,12.51
2023-03-16T12:00:01.011Z,12.56
2023-03-16T12:02:56.378Z,12.65
2023-03-16T12:06:02.084Z,12.80
2023-03-16T12:08:58.946Z,12.94
2023-03-16T12:11:34.174Z,13.13
2023-03-16T12:14:14.557Z,13.39
2023-03-16T12:16:51.679Z,13.54
2023-03-16T12:19:43.612Z,13.62
2023-03-16T12:22:34.612Z,13.63
2023-03-16T12:25:03.460Z,13.65
2023-03-16T12:27:34.548Z,13.59
2023-03-16T12:30:27.030Z,13.60
2023-03-16T12:33:13.716Z,13.53
2023-03-16T12:35:53.090Z,13.54
2023-03-16T12:38:37.355Z,13.48
2023-03-16T12:41:12.777Z,13.47
2023-03-16T12:43:51.386Z,13.38
2023-03-16T12:46:48.027Z,13.45
2023-03-16T12:49:14.773Z,13.53
2023-03-16T12:51:43.819Z,13.66
2023-03-16T12:54:25.355Z,13.73
2023-03-16T12:56:56.036Z,13.85
2023-03-16T12:59:24.376Z,14.17
2023-03-16T13:01:56.699Z,14.53
2023-03-16T13:04:32.405Z,14.85
2023-03-16T13:07:09.536Z,14.99
2023-03-16T13:09:42.305Z,15.06
2023-03-16T13:12:10.399Z,15.20
2023-03-16T13:14:44.605Z,15.24
2023-03-16T13:17:17.085Z,15.27
2023-03-16T13:19:46.573Z,15.27
2023-03-16T13:22:19.323Z,15.26
2023-03-16T13:25:10.758Z,15.28
2023-03-16T13:27:39.449Z,15.30
2023-03-16T13:30:37.065Z,15.22
2023-03-16T13:33:20.447Z,15.10
2023-03-16T13:35:49.698Z,15.08
2023-03-16T13:38:17.600Z,15.14
2023-03-16T13:40:52.952Z,15.18
2023-03-16T13:43:28.823Z,15.43
2023-03-16T13:45:55.574Z,15.55
2023-03-16T13:48:22.259Z,15.67
2023-03-16T13:50:53.357Z,15.73
2023-03-16T13:53:30.607Z,15.88
2023-03-16T13:55:58.722Z,15.99
2023-03-16T13:58:36.289Z,15.91
2023-03-16T14:01:05.303Z,15.79
2023-03-16T14:03:43.904Z,15.76
2023-03-16T14:06:22.615Z,15.74
2023-03-16T14:08:53.130Z,15.70
2023-03-16T14:11:19.893Z,15.73
2023-03-16T14:13:55.237Z,15.76
2023-03-16T14:16:28.383Z,15.74
2023-03-16T14:19:03.355Z,15.67
2023-03-16T14:21:34.246Z,15.68
2023-03-16T14:24:04.578Z,15.68
2023-03-16T14:26:46.479Z,15.64
2023-03-16T14:29:26.462Z,15.66
2023-03-16T14:31:54.353Z,15.67
2023-03-16T14:34:41.953Z,15.64
2023-03-16T14:37:13.472Z,15.61
2023-03-16T14:39:41.110Z,15.57
2023-03-16T14:42:29.622Z,15.55
2023-03-16T14:45:01.322Z,15.51
2023-03-16T14:47:30.887Z,15.52
2023-03-16T14:50:01.605Z,15.59
2023-03-16T14:52:34.274Z,15.54
2023-03-16T14:55:03.589Z,15.39
2023-03-16T14:57:30.621Z,15.31
2023-03-16T14:59:57.014Z,15.32
2023-03-16T15:02:33.272Z,15.32
2023-03-16T15:05:02.064Z,15.39
2023-03-16T15:07:36.999Z,15.38
2023-03-16T15:10:15.592Z,15.44
2023-03-16T15:12:50.609Z,15.41
2023-03-16T15:15:19.509Z,15.39
2023-03-16T15:17:46.529Z,15.45
2023-03-16T15:20:32.067Z,15.46
2023-03-16T15:22:59.530Z,15.36
2023-03-16T15:25:37.172Z,15.28
2023-03-16T15:28:16.072Z,15.26
2023-03-16T15:30:44.640Z,15.29
2023-03-16T15:33:12.477Z,15.33
2023-03-16T15:35:40.382Z,15.32
2023-03-16T15:38:13.543Z,15.30
2023-03-16T15:40:42.185Z,15.26
2023-03-16T15:43:12.958Z,15.20
2023-03-16T15:45:39.564Z,15.19
2023-03-16T15:48:07.047Z,15.21
2023-03-16T15:50:34.777Z,15.17
2023-03-16T15:53:30.925Z,15.17
2023-03-16T15:56:04.183Z,15.14
2023-03-16T15:58:34.075Z,15.11
2023-03-16T16:01:02.779Z,15.07
2023-03-16T16:03:29.420Z,15.09
2023-03-16T16:05:55.885Z,15.10
2023-03-16T16:08:22.429Z,15.07
2023-03-16T16:10:50.548Z,15.08
2023-03-16T16:13:43.532Z,15.05
2023-03-16T16:16:15.769Z,15.01
2023-03-16T16:18:42.885Z,14.98
2023-03-16T16:21:16.405Z,14.88
2023-03-16T16:23:42.973Z,14.88
2023-03-16T16:26:48.576Z,14.87
2023-03-16T16:29:22.315Z,14.86
2023-03-16T16:31:49.063Z,14.88
2023-03-16T16:34:18.029Z,14.87
2023-03-16T16:36:44.949Z,14.85
2023-03-16T16:39:11.835Z,14.83
2023-03-16T16:41:38.790Z,14.79
2023-03-16T16:44:08.295Z,14.78
2023-03-16T16:46:40.573Z,14.73
2023-03-16T16:49:22.555Z,14.73
2023-03-16T16:51:49.498Z,14.75
2023-03-16T16:54:22.268Z,14.68
2023-03-16T16:56:56.375Z,14.65
2023-03-16T16:59:25.569Z,14.57
2023-03-16T17:01:53.998Z,14.53
2023-03-16T17:04:26.267Z,14.49
2023-03-16T17:06:55.592Z,14.43
2023-03-16T17:09:24.358Z,14.40
2023-03-16T17:11:51.413Z,14.38
2023-03-16T17:14:21.171Z,14.32
2023-03-16T17:16:50.193Z,14.26
2023-03-16T17:19:34.717Z,14.22
2023-03-16T17:22:01.526Z,14.16
2023-03-16T17:24:29.627Z,14.12
2023-03-16T17:26:58.759Z,14.07
2023-03-16T17:29:33.831Z,14.04
2023-03-16T17:32:02.862Z,14.00
2023-03-16T17:34:32.135Z,13.96
2023-03-16T17:37:00.686Z,13.90
2023-03-16T17:39:34.430Z,13.78
2023-03-16T17:42:04.651Z,13.81
2023-03-16T17:44:34.145Z,13.76
2023-03-16T17:47:01.102Z,13.69
2023-03-16T17:49:28.645Z,13.66
2023-03-16T17:51:56.174Z,13.61
2023-03-16T17:54:22.798Z,13.57
2023-03-16T17:56:51.661Z,13.55
2023-03-16T17:59:21.092Z,13.50
2023-03-16T18:01:48.424Z,13.47
2023-03-16T18:04:21.021Z,13.46
2023-03-16T18:06:48.154Z,13.41
2023-03-16T18:09:19.097Z,13.43
2023-03-16T18:11:48.403Z,13.38
2023-03-16T18:14:35.478Z,13.35
2023-03-16T18:17:10.466Z,13.30
2023-03-16T18:19:37.660Z,13.23
2023-03-16T18:22:04.157Z,13.16
2023-03-16T18:24:30.546Z,13.14
2023-03-16T18:26:56.982Z,13.13
2023-03-16T18:29:24.034Z,13.12
2023-03-16T18:31:52.910Z,13.11
2023-03-16T18:34:23.710Z,13.07
2023-03-16T18:36:53.153Z,13.06
2023-03-16T18:39:21.255Z,13.02
2023-03-16T18:41:48.296Z,13.01
2023-03-16T18:44:22.246Z,12.98
2023-03-16T18:46:50.972Z,12.90
2023-03-16T18:49:25.896Z,12.95
2023-03-16T18:51:54.504Z,12.90
2023-03-16T18:54:24.378Z,12.87
2023-03-16T18:56:51.207Z,12.83
2023-03-16T18:59:17.701Z,12.81
2023-03-16T19:01:45.601Z,12.80
2023-03-16T19:04:25.739Z,12.80
2023-03-16T19:06:54.149Z,12.75
2023-03-16T19:09:29.626Z,12.70
2023-03-16T19:11:59.697Z,12.56
2023-03-16T19:14:38.419Z,12.60
2023-03-16T19:17:04.775Z,12.58
2023-03-16T19:19:31.309Z,12.55
2023-03-16T19:22:09.793Z,12.53
2023-03-16T19:24:46.274Z,12.50
2023-03-16T19:27:25.506Z,12.47
2023-03-16T19:29:53.917Z,12.42
2023-03-16T19:32:21.330Z,12.42
2023-03-16T19:34:48.877Z,12.38
2023-03-16T19:37:16.780Z,12.35
2023-03-16T19:39:43.842Z,12.29
2023-03-16T19:42:25.056Z,12.27
2023-03-16T19:44:51.649Z,12.24
2023-03-16T19:47:28.787Z,12.22
2023-03-16T19:49:55.447Z,12.21
2023-03-16T19:52:22.210Z,12.16
2023-03-16T19:54:48.892Z,12.09
2023-03-16T19:57:18.010Z,12.05
2023-03-16T19:59:47.797Z,12.02
2023-03-16T20:02:27.698Z,12.00
2023-03-16T20:04:55.389Z,11.85
2023-03-16T20:07:22.465Z,11.90
2023-03-16T20:09:49.082Z,11.90
2023-03-16T20:12:22.824Z,11.83
2023-03-16T20:14:51.341Z,11.80
2023-03-16T20:17:23.773Z,11.77
2023-03-16T20:19:51.352Z,11.75
2023-03-16T20:22:21.938Z,11.74
2023-03-16T20:24:49.497Z,11.70
2023-03-16T20:27:17.945Z,11.67
2023-03-16T20:29:45.909Z,11.66
2023-03-16T20:32:30.048Z,11.63
2023-03-16T20:34:56.790Z,11.59
2023-03-16T20:37:30.680Z,11.59
2023-03-16T20:39:58.964Z,11.57
2023-03-16T20:42:33.909Z,11.60
2023-03-16T20:45:01.188Z,11.51
2023-03-16T20:47:27.733Z,11.57
2023-03-16T20:49:57.304Z,11.57
2023-03-16T20:52:27.250Z,11.55
2023-03-16T20:54:55.222Z,11.55
2023-03-16T20:57:23.617Z,11.54
2023-03-16T20:59:52.218Z,11.52
2023-03-16T21:02:28.916Z,11.50
2023-03-16T21:04:57.242Z,11.51
2023-03-16T21:07:23.705Z,11.49
2023-03-16T21:09:50.573Z,11.47
2023-03-16T21:12:23.197Z,11.44
2023-03-16T21:14:49.704Z,11.42
2023-03-16T21:17:34.436Z,11.39
2023-03-16T21:20:00.877Z,11.38
2023-03-16T21:22:30.328Z,11.39
2023-03-16T21:24:57.583Z,11.39
2023-03-16T21:27:33.250Z,11.37
2023-03-16T21:30:07.164Z,11.36
2023-03-16T21:32:33.845Z,11.34
2023-03-16T21:35:00.343Z,11.30
2023-03-16T21:37:27.875Z,11.31
2023-03-16T21:39:54.608Z,11.28
2023-03-16T21:42:21.500Z,11.25
2023-03-16T21:44:48.297Z,11.25
2023-03-16T21:47:27.151Z,11.23
2023-03-16T21:49:56.387Z,11.24
2023-03-16T21:52:25.636Z,11.22
2023-03-16T21:54:53.016Z,11.17
2023-03-16T21:57:19.754Z,11.17
2023-03-16T21:59:46.466Z,11.18
2023-03-16T22:02:23.954Z,11.15
2023-03-16T22:04:51.845Z,11.13
2023-03-16T22:07:19.439Z,11.08
2023-03-16T22:09:45.971Z,11.08
2023-03-16T22:12:13.760Z,11.06
2023-03-16T22:14:40.352Z,11.03
2023-03-16T22:17:11.826Z,11.02
2023-03-16T22:19:38.348Z,11.02
2023-03-16T22:22:04.954Z,11.04
2023-03-16T22:24:35.768Z,11.00
2023-03-16T22:27:02.430Z,11.03
2023-03-16T22:29:31.566Z,11.02
2023-03-16T22:32:02.962Z,10.98
2023-03-16T22:34:35.463Z,10.97
2023-03-16T22:37:02.315Z,10.95
2023-03-16T22:39:34.813Z,10.94
2023-03-16T22:42:01.499Z,10.89
2023-03-16T22:44:27.896Z,10.92
2023-03-16T22:46:54.367Z,10.95
2023-03-16T22:49:24.598Z,10.96
2023-03-16T22:51:52.571Z,10.93
2023-03-16T22:54:23.979Z,10.87
2023-03-16T22:56:51.265Z,10.88
2023-03-16T22:59:20.724Z,10.86
2023-03-16T23:01:49.222Z,10.91
2023-03-16T23:04:19.794Z,10.92
2023-03-16T23:06:52.509Z,10.88
2023-03-16T23:09:21.704Z,10.84
2023-03-16T23:11:54.144Z,10.84
2023-03-16T23:14:24.063Z,10.85
2023-03-16T23:16:54.453Z,10.85
2023-03-16T23:19:25.574Z,10.86
2023-03-16T23:21:54.601Z,10.84
2023-03-16T23:24:21.798Z,10.79
2023-03-16T23:26:49.825Z,10.78
2023-03-16T23:29:20.083Z,10.80
2023-03-16T23:31:47.516Z,10.74
2023-03-16T23:34:19.955Z,10.71
2023-03-16T23:36:46.753Z,10.72
2023-03-16T23:39:13.499Z,10.72
2023-03-16T23:41:42.636Z,10.68
2023-03-16T23:44:15.709Z,10.67
2023-03-16T23:46:42.120Z,10.68
2023-03-16T23:49:19.026Z,10.66
2023-03-16T23:51:46.252Z,10.63
2023-03-16T23:54:21.968Z,10.63
2023-03-16T23:56:49.354Z,10.62
2023-03-16T23:59:16.383Z,10.61
